Weather reports worldwide

Advertisment
La Spezia-La Castellana, Italy (16129): temperature & dewpoint: 02.08.2020 05:00:00 - 08.08.2020 05:00:00 (CEST)La Spezia-La Castellana, Italy (16129): wind speed: 02.08.2020 05:00:00 - 08.08.2020 05:00:00 (CEST)La Spezia-La Castellana, Italy (16129): wind direction: 02.08.2020 05:00:00 - 08.08.2020 05:00:00 (CEST)La Spezia-La Castellana, Italy (16129): precipitation: 02.08.2020 05:00:00 - 08.08.2020 05:00:00 (CEST)
Date & Time tt [°C] td [°C] ff [km/h] ff [kn] dd rr [mm]
08.08.2020 05:00:00 24,2 16,1 18 10 N -
08.08.2020 04:00:00 24,2 16,6 16 9 N -
08.08.2020 03:00:00 24,3 17,2 18 10 NNW -
08.08.2020 02:00:00 24,1 18,0 18 10 N 0,0
08.08.2020 01:00:00 23,9 18,5 18 10 N -
08.08.2020 00:00:00 24,0 18,6 22 12 N -
07.08.2020 23:00:00 24,5 18,4 24 13 N -
07.08.2020 22:00:00 24,8 18,2 15 8 SE -
07.08.2020 21:00:00 25,9 18,3 8 4 N -
07.08.2020 20:00:00 27,2 18,4 2 1 N 0,0
07.08.2020 19:00:00 28,4 19,0 4 2 NNE -
07.08.2020 18:00:00 28,5 18,2 5 3 SW -
07.08.2020 17:00:00 28,7 21,4 4 2 SSW -
07.08.2020 16:00:00 29,4 20,5 2 1 WSW -
07.08.2020 15:00:00 29,7 19,4 4 2 SSE -
07.08.2020 14:00:00 28,9 20,6 5 3 SE 0,0
07.08.2020 13:00:00 27,6 19,3 8 4 NNE -
07.08.2020 12:00:00 26,6 19,4 9 5 S -
07.08.2020 11:00:00 25,9 19,5 9 5 SE -
07.08.2020 10:00:00 24,9 19,4 5 3 NW -
07.08.2020 09:00:00 22,6 18,7 8 4 ENE -
07.08.2020 08:00:00 22,7 18,2 21 11 SSW 0,0
07.08.2020 07:00:00 22,0 17,9 29 16 N -
07.08.2020 06:00:00 22,0 17,5 31 17 N -
07.08.2020 05:00:00 22,5 17,6 26 14 N -
07.08.2020 04:00:00 22,7 17,3 26 14 N -
07.08.2020 03:00:00 22,0 17,3 13 7 NNW -
07.08.2020 02:00:00 21,7 17,6 21 11 NNE 0,0
07.08.2020 01:00:00 22,3 17,6 22 12 N -
07.08.2020 00:00:00 22,5 17,6 22 12 N -
06.08.2020 23:00:00 23,0 17,8 24 13 N -
06.08.2020 22:00:00 23,2 18,2 21 11 N -
06.08.2020 21:00:00 24,0 18,3 15 8 ESE -
06.08.2020 20:00:00 25,1 18,9 8 4 SW 0,0
06.08.2020 19:00:00 26,3 18,9 9 5 SSE -
06.08.2020 18:00:00 27,0 19,0 5 3 WSW -
06.08.2020 17:00:00 28,1 20,6 4 2 E -
06.08.2020 16:00:00 27,8 20,8 4 2 NE -
06.08.2020 15:00:00 27,2 20,2 4 2 SSW -
06.08.2020 14:00:00 25,5 20,9 2 1 E 0,0
06.08.2020 13:00:00 25,5 20,2 4 2 S -
06.08.2020 12:00:00 24,6 18,9 4 2 E -
06.08.2020 11:00:00 22,8 18,7 5 3 WNW -
06.08.2020 10:00:00 22,8 18,5 4 2 W -
06.08.2020 09:00:00 22,2 16,2 2 1 NNW -
06.08.2020 08:00:00 20,9 15,1 11 6 N 0,0
06.08.2020 07:00:00 20,0 14,9 16 9 N -
06.08.2020 06:00:00 19,9 14,8 26 14 N -
06.08.2020 05:00:00 19,8 14,7 22 12 N -
06.08.2020 04:00:00 20,4 14,7 26 14 N -
06.08.2020 03:00:00 20,5 15,2 22 12 N -
06.08.2020 02:00:00 20,2 14,7 24 13 N 0,0
06.08.2020 01:00:00 20,6 14,9 18 10 N -
06.08.2020 00:00:00 21,2 14,5 22 12 N -
05.08.2020 23:00:00 20,8 14,6 15 8 N -
05.08.2020 22:00:00 20,9 14,9 22 12 N -
05.08.2020 21:00:00 21,4 15,6 16 9 WSW -
05.08.2020 20:00:00 22,7 15,9 8 4 N 0,0
05.08.2020 19:00:00 24,3 16,2 4 2 NNW -
05.08.2020 18:00:00 24,7 15,8 8 4 S -
05.08.2020 17:00:00 26,1 16,3 4 2 SE -
05.08.2020 16:00:00 26,4 16,6 4 2 SSE -
05.08.2020 15:00:00 25,6 16,7 5 3 N -
05.08.2020 14:00:00 25,4 16,2 5 3 SSW 0,0
05.08.2020 13:00:00 24,1 15,5 8 4 SSW -
05.08.2020 12:00:00 23,7 15,1 9 5 SW -
05.08.2020 11:00:00 22,4 15,7 9 5 S -
05.08.2020 10:00:00 21,0 15,5 13 7 WNW -
05.08.2020 09:00:00 19,9 14,6 9 5 NNE -
05.08.2020 08:00:00 18,9 13,9 21 11 NNW 0,0
05.08.2020 07:00:00 17,5 13,1 13 7 N -
05.08.2020 06:00:00 18,3 12,9 28 15 N -
05.08.2020 05:00:00 19,1 12,6 13 7 N -
05.08.2020 04:00:00 19,1 12,3 15 8 N -
05.08.2020 03:00:00 19,3 12,7 11 6 N -
05.08.2020 02:00:00 19,2 12,7 13 7 N 0,0
05.08.2020 01:00:00 19,0 12,9 13 7 N -
05.08.2020 00:00:00 18,8 13,3 8 4 NW -
04.08.2020 23:00:00 18,6 13,6 4 2 NW -
04.08.2020 22:00:00 18,8 13,6 8 4 NNW -
04.08.2020 21:00:00 19,5 13,8 2 1 W -
04.08.2020 20:00:00 20,5 13,8 9 5 N 0,0
04.08.2020 19:00:00 21,6 14,2 5 3 S -
04.08.2020 18:00:00 20,8 13,9 9 5 ENE -
04.08.2020 17:00:00 20,5 13,8 13 7 NNW -
04.08.2020 16:00:00 21,5 13,8 13 7 NW -
04.08.2020 15:00:00 21,2 14,3 13 7 S -
04.08.2020 14:00:00 21,6 13,4 15 8 WSW 0,0
04.08.2020 13:00:00 21,9 12,4 11 6 NW -
04.08.2020 12:00:00 20,6 13,7 9 5 NNE -
04.08.2020 11:00:00 19,8 12,9 11 6 N -
04.08.2020 10:00:00 19,9 11,9 9 5 NW -
04.08.2020 09:00:00 19,0 12,0 8 4 E -
04.08.2020 08:00:00 19,2 10,2 5 3 NNW 0,0
04.08.2020 07:00:00 18,2 10,0 11 6 NW -
04.08.2020 06:00:00 17,0 11,7 13 7 N -
04.08.2020 05:00:00 17,4 12,3 26 14 N -
04.08.2020 04:00:00 16,9 13,9 22 12 N -
04.08.2020 03:00:00 18,6 14,2 18 10 NNW -
04.08.2020 02:00:00 18,7 16,6 9 5 N 0,0
04.08.2020 01:00:00 18,5 16,8 15 8 NNW -
04.08.2020 00:00:00 19,4 16,9 5 3 N -
03.08.2020 23:00:00 19,3 16,8 5 3 NNW -
03.08.2020 22:00:00 20,2 18,4 4 2 N -
03.08.2020 21:00:00 19,7 18,0 8 4 W -
03.08.2020 20:00:00 20,1 18,3 18 10 S 0,0
03.08.2020 19:00:00 20,8 19,2 31 17 S -
03.08.2020 18:00:00 20,9 19,1 28 15 NNW -
03.08.2020 17:00:00 21,2 19,4 37 20 SSW -
03.08.2020 16:00:00 21,5 19,7 41 22 S -
03.08.2020 15:00:00 23,3 21,5 18 10 NNE -
03.08.2020 14:00:00 21,7 20,1 18 10 N 0,0
03.08.2020 13:00:00 22,0 20,4 26 14 ENE -
03.08.2020 12:00:00 22,6 21,0 13 7 WNW -
03.08.2020 11:00:00 22,5 20,9 16 9 SSE -
03.08.2020 10:00:00 21,7 20,1 21 11 SE -
03.08.2020 09:00:00 22,0 20,4 16 9 ENE -
03.08.2020 08:00:00 21,2 19,6 13 7 SE -
03.08.2020 07:00:00 20,5 18,7 13 7 E -
03.08.2020 06:00:00 21,0 19,2 11 6 ESE -
03.08.2020 05:00:00 17,5 16,0 24 13 NNW -
03.08.2020 04:00:00 22,2 20,6 11 6 NNW -
03.08.2020 03:00:00 22,4 20,8 11 6 S -
03.08.2020 02:00:00 22,9 21,3 5 3 S 0,0
03.08.2020 01:00:00 22,4 20,8 9 5 SE -
03.08.2020 00:00:00 23,0 21,4 9 5 S -
02.08.2020 23:00:00 22,9 21,3 11 6 SSE -
02.08.2020 22:00:00 23,5 21,9 5 3 ESE -
02.08.2020 21:00:00 23,8 22,2 11 6 S -
02.08.2020 20:00:00 24,3 22,5 16 9 S 0,0
02.08.2020 19:00:00 27,7 24,5 9 5 SSW -
02.08.2020 18:00:00 27,9 21,9 11 6 S -
02.08.2020 17:00:00 28,4 23,3 15 8 SSW -
02.08.2020 16:00:00 28,9 24,0 9 5 SSW -
02.08.2020 15:00:00 28,9 23,7 9 5 SSW -
02.08.2020 14:00:00 28,3 23,6 15 8 SSW 0,0
02.08.2020 13:00:00 28,0 24,4 13 7 SSW -
02.08.2020 12:00:00 27,6 24,6 5 3 SSW -
02.08.2020 11:00:00 26,4 24,2 5 3 SE -
02.08.2020 10:00:00 25,6 23,2 5 3 E -
02.08.2020 09:00:00 22,9 21,1 8 4 NNE -
02.08.2020 08:00:00 21,4 19,8 9 5 NNW 0,0
02.08.2020 07:00:00 21,5 19,9 5 3 NNE -
02.08.2020 06:00:00 21,4 19,8 8 4 WSW -
02.08.2020 05:00:00 21,7 20,1 2 1 NE -

tt = temperature
td = dewpoint
ff = wind speed
dd = wind direction
rr = precipitation

Next stations